Time;durP1;ratioP1;P1;durP2;ratioP2;P2;SDS_P1;SDS_P2;PMS_P1;PMS_P2;Temp;Humidity;BMP_temperature;BMP_pressure;BME280_temperature;BME280_humidity;BME280_pressure;Samples;Min_cycle;Max_cycle;Signal;HPM_P1;HPM_P2
2021/10/16 00:00:23;;;;;;;6.00;5.40;;;;;;;9.96;89.46;99056.84;4976862;28;103297;-65
2021/10/16 00:02:51;;;;;;;7.97;6.13;;;;;;;10.00;89.10;99054.81;4958613;28;103296;-65
2021/10/16 00:05:21;;;;;;;6.93;5.47;;;;;;;9.99;89.49;99055.78;4968200;28;103886;-65
2021/10/16 00:07:49;;;;;;;9.23;7.53;;;;;;;10.01;89.11;99053.91;4972415;28;103063;-65
2021/10/16 00:10:17;;;;;;;9.27;8.17;;;;;;;9.86;89.54;99058.34;4971913;28;103803;-64
2021/10/16 00:12:45;;;;;;;10.83;8.27;;;;;;;9.60;91.16;99057.34;4975935;28;103031;-65
2021/10/16 00:15:15;;;;;;;7.97;6.97;;;;;;;9.66;91.38;99059.63;4977187;28;102981;-65
2021/10/16 00:17:44;;;;;;;7.73;6.90;;;;;;;9.70;91.39;99063.78;4974624;28;103414;-65
2021/10/16 00:20:14;;;;;;;9.27;6.60;;;;;;;9.72;90.87;99056.59;4976106;28;103328;-65
2021/10/16 00:22:43;;;;;;;10.03;8.03;;;;;;;9.45;92.27;99058.34;4975548;28;103211;-63
2021/10/16 00:25:11;;;;;;;8.27;6.93;;;;;;;9.47;93.19;99064.34;4972769;28;102660;-65
2021/10/16 00:27:39;;;;;;;7.17;5.73;;;;;;;9.55;92.50;99070.00;4976225;28;102798;-65
2021/10/16 00:30:08;;;;;;;7.53;5.83;;;;;;;9.64;91.71;99066.78;4958975;28;103219;-65
2021/10/16 00:32:36;;;;;;;7.00;5.67;;;;;;;9.65;91.13;99067.66;4947584;28;103249;-65
2021/10/16 00:35:05;;;;;;;6.80;5.40;;;;;;;9.61;91.09;99066.13;4975635;28;102672;-65
2021/10/16 00:37:33;;;;;;;8.27;5.93;;;;;;;9.50;91.58;99076.50;4976436;28;102847;-64
2021/10/16 00:40:02;;;;;;;6.03;5.43;;;;;;;9.57;91.21;99070.72;4976129;28;104092;-65
2021/10/16 00:42:30;;;;;;;7.57;6.77;;;;;;;9.45;91.17;99074.16;4980011;28;103214;-65
2021/10/16 00:45:02;;;;;;;9.73;8.67;;;;;;;9.31;92.15;99071.53;4980092;28;102666;-65
2021/10/16 00:47:30;;;;;;;9.10;8.20;;;;;;;9.29;92.85;99073.41;4977570;28;103857;-65
2021/10/16 00:49:57;;;;;;;11.03;8.53;;;;;;;9.30;92.01;99069.81;4960364;28;103479;-63
2021/10/16 00:52:26;;;;;;;9.13;7.30;;;;;;;9.26;92.43;99071.78;4979808;28;103001;-63
2021/10/16 00:54:55;;;;;;;12.33;8.37;;;;;;;8.94;93.55;99069.41;4959631;28;103215;-63
2021/10/16 00:57:24;;;;;;;8.77;7.27;;;;;;;8.98;94.63;99063.84;4967581;28;102736;-63
2021/10/16 00:59:52;;;;;;;11.97;8.37;;;;;;;9.04;94.21;99066.13;4962014;28;103250;-63
2021/10/16 01:02:20;;;;;;;13.17;9.80;;;;;;;8.82;94.30;99065.72;4955818;28;104269;-63
2021/10/16 01:04:51;;;;;;;12.05;9.77;;;;;;;9.11;93.88;99056.06;4977021;28;102952;-63
2021/10/16 01:07:20;;;;;;;12.97;11.73;;;;;;;8.77;94.57;99062.50;4958150;28;103129;-63
2021/10/16 01:09:51;;;;;;;12.47;11.17;;;;;;;8.86;94.79;99055.84;4959129;28;105084;-63
2021/10/16 01:12:19;;;;;;;11.57;10.57;;;;;;;9.11;93.87;99056.06;4976347;28;103271;-63
2021/10/16 01:14:52;;;;;;;11.13;10.00;;;;;;;9.29;92.89;99060.22;4959658;28;102889;-63
2021/10/16 01:17:21;;;;;;;10.23;9.13;;;;;;;9.51;91.57;99055.31;4980241;28;102721;-63
2021/10/16 01:19:55;;;;;;;10.52;9.52;;;;;;;9.79;89.73;99054.44;4968069;28;103720;-63
2021/10/16 01:22:25;;;;;;;8.53;7.83;;;;;;;10.13;88.30;99047.88;4959152;28;103971;-62
2021/10/16 01:24:54;;;;;;;8.87;7.43;;;;;;;9.67;89.37;99053.41;4979662;28;102825;-63
2021/10/16 01:27:22;;;;;;;10.10;7.30;;;;;;;9.51;90.51;99050.03;4979025;28;102710;-63
2021/10/16 01:29:50;;;;;;;8.00;7.20;;;;;;;9.44;91.60;99043.44;4959388;28;103404;-64
2021/10/16 01:32:18;;;;;;;9.07;7.47;;;;;;;9.40;91.82;99049.00;4959914;28;103266;-63
2021/10/16 01:34:46;;;;;;;8.57;7.53;;;;;;;9.43;91.85;99049.66;4980376;28;102825;-63
2021/10/16 01:37:14;;;;;;;11.17;8.10;;;;;;;9.38;91.97;99045.59;4977921;28;102753;-63
2021/10/16 01:39:45;;;;;;;10.30;8.77;;;;;;;9.83;90.32;99042.72;4959431;28;104595;-63
2021/10/16 01:42:13;;;;;;;7.60;6.90;;;;;;;9.68;91.16;99039.28;4978132;28;103987;-63
2021/10/16 01:44:48;;;;;;;7.07;6.37;;;;;;;9.60;91.82;99033.63;4951883;28;102738;-63
2021/10/16 01:47:16;;;;;;;6.80;6.10;;;;;;;9.60;91.88;99030.97;4976287;28;103962;-62
2021/10/16 01:49:47;;;;;;;6.33;5.73;;;;;;;9.62;91.76;99029.13;4960169;28;105339;-63
2021/10/16 01:52:15;;;;;;;7.80;7.03;;;;;;;9.63;91.48;99028.16;4978294;28;103183;-63
2021/10/16 01:54:47;;;;;;;6.93;6.23;;;;;;;9.64;91.71;99029.84;4962081;28;102758;-63
2021/10/16 01:57:15;;;;;;;11.37;8.57;;;;;;;9.52;91.75;99035.88;4979360;28;103275;-63
2021/10/16 01:59:55;;;;;;;7.43;6.73;;;;;;;9.45;93.84;99026.69;4959113;28;103500;-63
2021/10/16 02:02:35;;;;;;;9.77;7.73;;;;;;;9.40;93.92;99036.69;4973527;28;103317;-63
2021/10/16 02:05:43;;;;;;;9.93;7.80;;;;;;;9.31;95.27;99029.34;4897275;28;103447;-63
2021/10/16 02:08:28;;;;;;;6.33;5.73;;;;;;;9.44;94.88;99027.63;4946471;28;102832;-63
2021/10/16 02:10:57;;;;;;;9.13;7.90;;;;;;;9.50;94.02;99027.25;4961426;28;103188;-63
2021/10/16 02:13:32;;;;;;;12.80;10.47;;;;;;;9.18;95.72;99031.00;4958279;28;103261;-63
2021/10/16 02:16:06;;;;;;;7.53;6.83;;;;;;;9.25;96.46;99034.97;4960169;28;102693;-63
2021/10/16 02:18:41;;;;;;;6.57;5.97;;;;;;;9.37;95.20;99034.22;4958348;28;103077;-63
2021/10/16 02:21:12;;;;;;;8.83;7.63;;;;;;;9.35;94.91;99036.09;4957040;28;103261;-63
2021/10/16 02:23:41;;;;;;;10.70;9.47;;;;;;;9.05;96.70;99040.63;4958718;28;105597;-63
2021/10/16 02:26:12;;;;;;;12.47;10.10;;;;;;;8.89;98.47;99038.06;4960928;28;102722;-63
2021/10/16 02:28:43;;;;;;;9.20;8.30;;;;;;;9.07;98.52;99036.94;4960667;28;102763;-63
2021/10/16 02:31:19;;;;;;;12.03;10.20;;;;;;;9.04;97.06;99044.22;4959874;28;104143;-63
2021/10/16 02:33:47;;;;;;;10.53;9.07;;;;;;;8.95;97.69;99034.22;4949748;28;103333;-63
2021/10/16 02:36:20;;;;;;;11.10;9.90;;;;;;;8.91;99.05;99030.06;4960597;28;102736;-63
2021/10/16 02:38:48;;;;;;;10.30;9.20;;;;;;;8.89;98.61;99034.59;4977166;28;102767;-63
2021/10/16 02:41:20;;;;;;;11.03;9.87;;;;;;;8.92;98.48;99031.75;4959630;28;104168;-63
2021/10/16 02:43:47;;;;;;;8.23;7.43;;;;;;;9.12;97.97;99036.69;4974930;28;103223;-63
2021/10/16 02:46:20;;;;;;;9.93;7.77;;;;;;;9.11;97.39;99034.97;4957790;28;103070;-63
2021/10/16 02:48:48;;;;;;;13.60;10.23;;;;;;;9.07;97.30;99036.09;4977383;28;102813;-63
2021/10/16 02:51:16;;;;;;;7.83;6.47;;;;;;;9.21;97.41;99030.81;4959825;28;103999;-63
2021/10/16 02:53:47;;;;;;;9.70;8.70;;;;;;;9.23;96.45;99028.97;4956401;28;103247;-63
2021/10/16 02:56:17;;;;;;;10.60;9.50;;;;;;;9.14;96.64;99040.06;4950903;28;102831;-63
2021/10/16 02:58:46;;;;;;;8.33;7.20;;;;;;;9.23;97.33;99042.16;4959215;28;102803;-62
2021/10/16 03:01:15;;;;;;;7.73;6.33;;;;;;;9.32;96.69;99039.78;4958319;28;103208;-63
2021/10/16 03:03:44;;;;;;;7.27;6.30;;;;;;;9.42;95.80;99045.34;4958679;28;103281;-63
2021/10/16 03:06:13;;;;;;;7.40;6.50;;;;;;;9.45;94.81;99042.50;4959386;28;103172;-62
2021/10/16 03:08:42;;;;;;;9.03;7.77;;;;;;;9.47;94.20;99042.41;4958774;28;104344;-63
2021/10/16 03:11:15;;;;;;;8.23;7.40;;;;;;;9.44;94.00;99037.31;4954509;28;103307;-63
2021/10/16 03:13:46;;;;;;;8.10;7.30;;;;;;;9.29;93.76;99044.41;4957781;28;105611;-63
2021/10/16 03:16:18;;;;;;;11.07;9.13;;;;;;;9.30;94.43;99046.09;4960007;28;102823;-63
2021/10/16 03:18:48;;;;;;;7.17;6.17;;;;;;;9.41;93.84;99043.63;4956473;28;103201;-63
2021/10/16 03:21:16;;;;;;;7.93;7.17;;;;;;;9.45;93.22;99041.66;4964602;28;103889;-63
2021/10/16 03:23:44;;;;;;;11.43;8.70;;;;;;;9.28;94.62;99043.56;4958791;28;103438;-63
2021/10/16 03:26:13;;;;;;;12.70;9.33;;;;;;;9.16;94.99;99036.38;4960296;28;102740;-63
2021/10/16 03:28:41;;;;;;;9.67;8.23;;;;;;;9.12;95.58;99040.13;4958924;28;103019;-63
2021/10/16 03:31:10;;;;;;;9.47;8.47;;;;;;;9.16;95.30;99040.81;4958823;28;103746;-63
2021/10/16 03:33:38;;;;;;;8.73;7.87;;;;;;;9.13;95.59;99041.00;4956874;28;103383;-63
2021/10/16 03:36:06;;;;;;;10.10;9.10;;;;;;;9.05;96.19;99038.84;4960687;28;103167;-63
2021/10/16 03:38:34;;;;;;;7.50;6.70;;;;;;;9.16;96.23;99038.16;4957139;28;103777;-63
2021/10/16 03:41:02;;;;;;;10.93;9.37;;;;;;;9.13;95.21;99041.00;4959041;28;105009;-63
2021/10/16 03:43:31;;;;;;;8.13;7.20;;;;;;;9.06;96.78;99037.06;4959095;28;103060;-63
2021/10/16 03:46:02;;;;;;;7.07;6.40;;;;;;;9.21;96.61;99036.09;4966788;28;102965;-63
2021/10/16 03:48:31;;;;;;;6.50;5.90;;;;;;;9.29;95.65;99033.88;4959271;28;104591;-63
2021/10/16 03:51:00;;;;;;;6.83;5.57;;;;;;;9.31;94.63;99035.47;4959261;28;103260;-63
2021/10/16 03:53:30;;;;;;;6.60;5.50;;;;;;;9.35;93.88;99033.47;4958239;28;103198;-63
2021/10/16 03:55:58;;;;;;;9.43;8.23;;;;;;;9.21;93.73;99031.69;4958897;28;102677;-63
2021/10/16 03:58:27;;;;;;;11.07;8.70;;;;;;;8.84;97.45;99039.28;4958733;28;102782;-63
2021/10/16 04:01:00;;;;;;;10.23;9.00;;;;;;;8.63;99.35;99038.75;4959979;28;105126;-63
2021/10/16 04:03:31;;;;;;;7.73;7.03;;;;;;;9.39;96.37;99040.25;4958380;28;103411;-63
2021/10/16 04:05:59;;;;;;;10.30;9.30;;;;;;;9.65;92.88;99036.84;4958655;28;103284;-63
2021/10/16 04:08:30;;;;;;;10.85;9.75;;;;;;;9.58;92.52;99035.50;4944513;28;102820;-63
2021/10/16 04:11:01;;;;;;;10.60;9.53;;;;;;;9.58;92.39;99030.25;4975468;28;104489;-63
2021/10/16 04:13:29;;;;;;;10.40;9.32;;;;;;;9.82;91.53;99039.22;4958548;28;103275;-63
2021/10/16 04:15:57;;;;;;;9.93;8.93;;;;;;;10.00;90.13;99037.22;4961977;28;102787;-63
2021/10/16 04:18:26;;;;;;;8.93;8.13;;;;;;;10.24;89.50;99040.09;4960217;28;103862;-61
2021/10/16 04:20:57;;;;;;;8.23;7.53;;;;;;;10.40;88.83;99041.63;4961178;28;106239;-61
2021/10/16 04:23:25;;;;;;;10.18;9.30;;;;;;;10.17;87.84;99044.06;4978434;28;103294;-61
2021/10/16 04:25:56;;;;;;;10.05;9.05;;;;;;;10.01;90.50;99040.69;4959771;28;102721;-61
2021/10/16 04:28:24;;;;;;;8.77;7.97;;;;;;;10.20;90.16;99049.16;4957668;28;102828;-61
2021/10/16 04:31:15;;;;;;;6.75;6.15;;;;;;;10.54;88.55;99038.06;4972888;28;103376;-61
2021/10/16 04:33:43;;;;;;;9.37;8.37;;;;;;;10.54;87.46;99043.34;4947523;28;103470;-61
2021/10/16 04:36:13;;;;;;;9.90;8.80;;;;;;;9.90;90.65;99047.53;4962111;28;102776;-62
2021/10/16 04:38:45;;;;;;;10.67;8.63;;;;;;;9.71;92.46;99043.50;4961825;28;103898;-62
2021/10/16 04:41:13;;;;;;;12.03;8.03;;;;;;;9.48;94.10;99044.97;4960815;28;103297;-63
2021/10/16 04:43:43;;;;;;;10.53;9.37;;;;;;;9.32;95.31;99044.19;4961670;28;103334;-63
2021/10/16 04:46:12;;;;;;;9.80;8.80;;;;;;;9.36;95.38;99048.34;4963593;28;102845;-62
2021/10/16 04:48:45;;;;;;;11.20;8.63;;;;;;;9.20;96.23;99044.97;4959995;28;103163;-62
2021/10/16 04:51:14;;;;;;;15.43;10.23;;;;;;;8.79;99.44;99044.81;4961453;28;103569;-62
2021/10/16 04:53:44;;;;;;;12.30;11.00;;;;;;;9.34;96.84;99044.97;4958806;28;103232;-62
2021/10/16 04:56:12;;;;;;;12.27;10.63;;;;;;;9.43;96.23;99047.00;4947481;28;102710;-62
2021/10/16 04:58:40;;;;;;;9.70;8.80;;;;;;;9.75;94.93;99040.56;4976477;28;102806;-62
2021/10/16 05:01:09;;;;;;;10.60;9.50;;;;;;;9.86;93.02;99045.16;4960850;28;104118;-62
2021/10/16 05:03:37;;;;;;;11.47;10.37;;;;;;;9.61;94.18;99053.78;4959338;28;103074;-62
2021/10/16 05:06:08;;;;;;;12.43;11.33;;;;;;;9.02;97.77;99051.34;4959501;28;102859;-62
2021/10/16 05:08:40;;;;;;;10.73;9.43;;;;;;;9.49;96.52;99049.28;4959693;28;102738;-62
2021/10/16 05:11:08;;;;;;;8.37;7.67;;;;;;;10.13;93.97;99042.59;4956600;28;104207;-62
2021/10/16 05:13:40;;;;;;;9.87;8.97;;;;;;;10.09;91.45;99047.19;4958600;28;105781;-62
2021/10/16 05:16:09;;;;;;;11.50;10.40;;;;;;;9.62;93.42;99046.72;4960186;28;103022;-62
2021/10/16 05:18:37;;;;;;;11.75;10.52;;;;;;;9.31;96.63;99048.66;4956683;28;103159;-61
2021/10/16 05:21:05;;;;;;;8.95;8.15;;;;;;;9.89;94.92;99051.09;4946433;28;104362;-61
2021/10/16 05:23:33;;;;;;;9.38;8.45;;;;;;;9.92;93.60;99057.97;4958136;28;104056;-61
2021/10/16 05:26:03;;;;;;;9.57;8.68;;;;;;;9.82;94.79;99057.69;4976625;28;103774;-61
2021/10/16 05:28:34;;;;;;;9.65;8.75;;;;;;;10.23;91.65;99049.81;4958547;28;102729;-61
2021/10/16 05:31:02;;;;;;;9.07;8.27;;;;;;;10.30;90.26;99047.63;4975621;28;103859;-61
2021/10/16 05:33:31;;;;;;;10.65;9.55;;;;;;;10.15;91.34;99061.81;4958292;28;103432;-61
2021/10/16 05:36:01;;;;;;;8.80;7.97;;;;;;;10.56;90.21;99056.44;4961154;28;102866;-61
2021/10/16 05:38:29;;;;;;;7.32;6.72;;;;;;;10.77;89.01;99061.16;4957713;28;103970;-61
2021/10/16 05:40:58;;;;;;;8.00;7.20;;;;;;;10.96;87.53;99058.94;4978141;28;103957;-61
2021/10/16 05:43:27;;;;;;;10.83;9.10;;;;;;;10.14;89.74;99062.75;4961648;28;103590;-61
2021/10/16 05:46:01;;;;;;;12.77;10.27;;;;;;;9.48;94.63;99070.47;4950823;28;102811;-61
2021/10/16 05:48:30;;;;;;;9.30;8.23;;;;;;;9.55;95.87;99072.63;4958988;28;102905;-61
2021/10/16 05:50:58;;;;;;;10.73;9.50;;;;;;;9.06;99.50;99071.31;4959233;28;103191;-61
2021/10/16 05:53:26;;;;;;;10.67;8.87;;;;;;;8.85;100.00;99072.59;4960056;28;102637;-61
2021/10/16 05:55:55;;;;;;;8.47;7.20;;;;;;;8.98;100.00;99073.56;4981757;28;102641;-61
2021/10/16 05:58:25;;;;;;;10.00;8.97;;;;;;;9.10;99.35;99080.72;4958132;28;103028;-61
2021/10/16 06:00:54;;;;;;;7.80;6.43;;;;;;;9.36;98.23;99077.34;4960216;28;103360;-61
2021/10/16 06:03:25;;;;;;;10.17;8.60;;;;;;;9.18;98.10;99081.09;4960043;28;103174;-61
2021/10/16 06:05:57;;;;;;;7.43;6.73;;;;;;;9.41;97.42;99085.81;4961137;28;103050;-61
2021/10/16 06:08:27;;;;;;;7.00;6.40;;;;;;;9.36;96.87;99082.63;4950975;28;102808;-61
2021/10/16 06:10:55;;;;;;;9.93;8.93;;;;;;;9.19;96.81;99088.94;4959002;28;104342;-61
2021/10/16 06:13:24;;;;;;;6.73;6.13;;;;;;;9.48;96.91;99092.44;4960614;28;103106;-60
2021/10/16 06:15:53;;;;;;;8.77;7.83;;;;;;;9.58;95.36;99093.53;4960462;28;103266;-61
2021/10/16 06:18:24;;;;;;;8.77;7.87;;;;;;;9.57;95.37;99091.84;4958189;28;104527;-60
2021/10/16 06:20:53;;;;;;;7.90;7.10;;;;;;;9.30;97.08;99094.41;4956013;28;103770;-64
2021/10/16 06:23:22;;;;;;;7.37;6.63;;;;;;;9.51;96.03;99094.88;4966766;28;103338;-65
2021/10/16 06:25:51;;;;;;;9.47;7.97;;;;;;;9.59;95.32;99105.81;4972345;28;102757;-65
2021/10/16 06:28:19;;;;;;;8.73;7.63;;;;;;;9.62;95.64;99095.06;4957662;28;102722;-65
2021/10/16 06:30:47;;;;;;;9.43;8.53;;;;;;;9.09;98.07;99097.50;4958807;28;103231;-58
2021/10/16 06:33:17;;;;;;;11.15;10.07;;;;;;;9.36;98.09;99102.88;4948778;28;103495;-58
2021/10/16 06:35:46;;;;;;;11.00;9.98;;;;;;;9.28;98.52;99104.19;4975240;28;102857;-66
2021/10/16 06:38:27;;;;;;;11.32;10.23;;;;;;;9.02;100.00;99109.31;4956754;28;102960;-66
2021/10/16 06:40:55;;;;;;;11.97;10.87;;;;;;;9.19;99.73;99107.38;4961034;28;104356;-65
2021/10/16 06:44:02;;;;;;;13.75;12.45;;;;;;;9.10;100.00;99112.34;4862664;28;103897;-65
2021/10/16 06:46:34;;;;;;;14.13;12.75;;;;;;;9.05;100.00;99106.50;4858463;28;102916;-59
2021/10/16 06:49:17;;;;;;;11.35;10.25;;;;;;;9.86;97.34;99112.00;4903775;28;102755;-58
2021/10/16 06:51:45;;;;;;;8.52;7.82;;;;;;;10.47;94.11;99110.72;4959018;28;103590;-58
2021/10/16 06:54:14;;;;;;;7.65;7.05;;;;;;;10.86;91.94;99117.84;4957912;28;103241;-58
2021/10/16 06:56:45;;;;;;;10.35;9.43;;;;;;;10.43;89.79;99119.81;4956502;28;102800;-65
2021/10/16 06:59:16;;;;;;;12.17;10.93;;;;;;;9.75;95.63;99118.88;4949763;28;103045;-65
2021/10/16 07:01:45;;;;;;;9.73;8.83;;;;;;;10.44;93.21;99116.22;4973749;28;103406;-65
2021/10/16 07:04:17;;;;;;;7.55;6.95;;;;;;;10.93;90.72;99119.97;4958553;28;103968;-65
2021/10/16 07:06:50;;;;;;;7.53;6.90;;;;;;;11.27;88.33;99122.97;4957530;28;103207;-58
2021/10/16 07:09:28;;;;;;;6.70;6.18;;;;;;;11.52;87.17;99125.59;4956984;28;104492;-65
2021/10/16 07:11:57;;;;;;;7.80;7.00;;;;;;;11.21;87.31;99126.00;4979341;28;103706;-59
2021/10/16 07:14:25;;;;;;;5.87;5.37;;;;;;;11.05;88.29;99119.13;4973376;28;103344;-59
2021/10/16 07:16:56;;;;;;;5.63;5.13;;;;;;;11.02;88.58;99126.41;4960668;28;102720;-59
2021/10/16 07:19:25;;;;;;;6.67;5.80;;;;;;;10.89;88.91;99123.75;4977744;28;103130;-59
2021/10/16 07:21:54;;;;;;;5.50;5.00;;;;;;;10.93;89.08;99130.53;4964212;28;103474;-59
2021/10/16 07:24:22;;;;;;;6.00;5.40;;;;;;;10.91;88.86;99132.44;4977315;28;103227;-59
2021/10/16 07:26:50;;;;;;;6.80;6.10;;;;;;;10.98;88.46;99132.84;4960353;28;102799;-58
2021/10/16 07:29:18;;;;;;;6.97;5.73;;;;;;;11.00;88.39;99142.38;4975793;28;104269;-59
2021/10/16 07:31:46;;;;;;;6.27;5.57;;;;;;;11.01;88.30;99137.94;4976991;28;103343;-59
2021/10/16 07:34:14;;;;;;;5.63;5.13;;;;;;;11.00;88.14;99146.84;4976733;28;103229;-58
2021/10/16 07:36:43;;;;;;;6.50;5.53;;;;;;;11.03;88.66;99151.94;4977964;28;102670;-58
2021/10/16 07:39:11;;;;;;;8.80;6.80;;;;;;;10.87;88.19;99152.09;4977588;28;102837;-58
2021/10/16 07:41:39;;;;;;;8.07;7.27;;;;;;;10.84;88.76;99152.28;4960990;28;103574;-59
2021/10/16 07:44:08;;;;;;;7.70;6.90;;;;;;;10.87;89.29;99165.28;4965691;28;103484;-59
2021/10/16 07:46:39;;;;;;;6.93;6.17;;;;;;;10.96;89.38;99156.75;4970401;28;103336;-66
2021/10/16 07:49:07;;;;;;;5.50;5.00;;;;;;;11.09;88.98;99155.97;4976743;28;102742;-65
2021/10/16 07:51:40;;;;;;;5.97;5.47;;;;;;;11.20;88.54;99156.06;4977480;28;103248;-66
2021/10/16 07:54:09;;;;;;;9.47;7.27;;;;;;;11.22;87.74;99156.81;4976327;28;103007;-66
2021/10/16 07:56:38;;;;;;;8.13;5.67;;;;;;;11.29;87.49;99158.06;4957045;28;102776;-66
2021/10/16 07:59:06;;;;;;;6.97;6.27;;;;;;;11.37;87.46;99161.91;4975422;28;103221;-65
2021/10/16 08:01:36;;;;;;;6.30;5.47;;;;;;;11.46;87.55;99163.06;4975638;28;103918;-65
2021/10/16 08:04:05;;;;;;;5.57;5.07;;;;;;;11.55;86.99;99154.50;4959071;28;103216;-65
2021/10/16 08:06:34;;;;;;;9.03;7.43;;;;;;;11.15;89.36;99158.16;4977984;28;103091;-67
2021/10/16 08:09:03;;;;;;;7.83;7.03;;;;;;;11.23;88.55;99156.69;4948496;28;104331;-67
2021/10/16 08:11:48;;;;;;;7.20;6.30;;;;;;;11.24;88.53;99168.13;4970880;28;105475;-61
2021/10/16 08:14:23;;;;;;;8.03;7.30;;;;;;;11.38;87.95;99160.09;4976320;28;104008;-61
2021/10/16 08:16:52;;;;;;;14.33;10.53;;;;;;;11.03;87.97;99173.91;4976558;28;103206;-61
2021/10/16 08:19:20;;;;;;;13.17;11.10;;;;;;;10.59;91.17;99162.75;4976148;28;103769;-61
2021/10/16 08:21:48;;;;;;;10.67;8.63;;;;;;;10.70;91.78;99165.56;4976477;28;103980;-61
2021/10/16 08:24:16;;;;;;;11.37;9.27;;;;;;;11.07;90.64;99164.81;4957960;28;103238;-60
2021/10/16 08:26:45;;;;;;;14.30;11.43;;;;;;;10.98;89.90;99168.06;4976173;28;102729;-61
2021/10/16 08:29:14;;;;;;;15.63;13.20;;;;;;;10.93;90.24;99175.47;4974173;28;102993;-61
2021/10/16 08:31:42;;;;;;;17.43;14.43;;;;;;;10.55;93.55;99177.16;4962806;28;103452;-61
2021/10/16 08:34:10;;;;;;;14.77;13.20;;;;;;;10.83;93.10;99177.03;4953259;28;103250;-61
2021/10/16 08:36:39;;;;;;;15.70;13.23;;;;;;;10.89;90.80;99176.59;4976701;28;102691;-61
2021/10/16 08:39:08;;;;;;;15.47;12.13;;;;;;;10.71;93.47;99171.69;4973069;28;103698;-61
2021/10/16 08:41:36;;;;;;;16.43;14.10;;;;;;;10.96;92.67;99177.91;4975052;28;104013;-61
2021/10/16 08:44:05;;;;;;;12.00;10.77;;;;;;;11.01;91.99;99181.09;4956767;28;105712;-61
2021/10/16 08:46:41;;;;;;;17.57;14.27;;;;;;;11.08;91.63;99186.84;4976556;28;102734;-61
2021/10/16 08:49:12;;;;;;;21.23;15.40;;;;;;;11.18;91.54;99179.97;4974714;28;102872;-61
2021/10/16 08:51:44;;;;;;;15.00;12.83;;;;;;;11.33;90.33;99178.94;4976245;28;103406;-61
2021/10/16 08:54:12;;;;;;;17.53;15.77;;;;;;;11.27;89.95;99182.00;4974509;28;103185;-61
2021/10/16 08:56:40;;;;;;;13.90;12.40;;;;;;;11.22;90.84;99191.19;4964860;28;102714;-61
2021/10/16 08:59:08;;;;;;;17.10;13.27;;;;;;;11.41;90.00;99189.84;4974647;28;103931;-62
2021/10/16 09:01:55;;;;;;;17.57;13.57;;;;;;;11.34;89.98;99187.72;4975390;28;104687;-61
2021/10/16 09:04:23;;;;;;;16.90;15.07;;;;;;;11.23;89.83;99193.72;4977049;28;103285;-61
2021/10/16 09:06:51;;;;;;;12.30;10.77;;;;;;;11.16;91.37;99191.59;4979107;28;102634;-61
2021/10/16 09:09:25;;;;;;;13.53;12.13;;;;;;;11.30;90.37;99191.53;4978559;28;102777;-61
2021/10/16 09:11:55;;;;;;;12.37;11.00;;;;;;;10.92;93.16;99197.56;4975743;28;103261;-62
2021/10/16 09:14:24;;;;;;;13.27;11.93;;;;;;;11.05;92.12;99198.47;4960351;28;103235;-62
2021/10/16 09:16:57;;;;;;;14.43;12.47;;;;;;;11.21;91.06;99189.50;4960204;28;102710;-61
2021/10/16 09:19:27;;;;;;;11.10;9.67;;;;;;;11.38;90.38;99181.25;4977309;28;102972;-62
2021/10/16 09:21:57;;;;;;;14.43;12.93;;;;;;;11.28;89.90;99196.94;4967869;28;102708;-61
2021/10/16 09:24:26;;;;;;;12.67;11.37;;;;;;;11.31;91.06;99186.13;4975412;28;103198;-61
2021/10/16 09:26:58;;;;;;;9.90;8.90;;;;;;;11.43;90.20;99189.72;4961503;28;102716;-61
2021/10/16 09:29:28;;;;;;;15.07;13.47;;;;;;;11.40;89.03;99187.28;4978984;28;102666;-63
2021/10/16 09:31:59;;;;;;;11.43;10.33;;;;;;;11.30;89.26;99191.53;4979068;28;103291;-62
2021/10/16 09:34:29;;;;;;;12.33;11.10;;;;;;;11.12;91.18;99193.59;4977774;28;103243;-62
2021/10/16 09:37:06;;;;;;;13.77;12.40;;;;;;;11.30;90.50;99188.88;4960325;28;103062;-62
2021/10/16 09:39:36;;;;;;;16.37;14.67;;;;;;;11.31;89.32;99191.41;4960648;28;103160;-62
2021/10/16 09:42:05;;;;;;;14.60;13.10;;;;;;;11.05;91.04;99193.19;4978896;28;103887;-62
2021/10/16 09:44:36;;;;;;;14.43;11.57;;;;;;;11.29;90.94;99189.81;4950802;28;103311;-61
2021/10/16 09:47:12;;;;;;;10.90;9.80;;;;;;;11.47;89.77;99188.59;4970909;28;103443;-62
2021/10/16 09:49:42;;;;;;;10.87;9.83;;;;;;;11.40;90.43;99192.59;4975918;28;102741;-62
2021/10/16 09:52:14;;;;;;;17.63;14.40;;;;;;;11.16;90.48;99189.81;4977416;28;104000;-62
2021/10/16 09:54:43;;;;;;;11.43;10.23;;;;;;;11.27;93.20;99191.72;4978047;28;103322;-62
2021/10/16 09:57:14;;;;;;;11.87;10.67;;;;;;;11.22;93.37;99184.13;4979106;28;102623;-62
2021/10/16 09:59:43;;;;;;;14.40;12.43;;;;;;;11.34;93.07;99182.44;4979353;28;102701;-61
2021/10/16 10:02:15;;;;;;;11.57;10.47;;;;;;;11.47;92.17;99185.94;4977420;28;104496;-62
2021/10/16 10:04:46;;;;;;;9.17;8.23;;;;;;;11.59;91.89;99188.56;4976477;28;103732;-62
2021/10/16 10:07:16;;;;;;;13.47;11.37;;;;;;;11.66;90.80;99186.38;4962334;28;102807;-62
2021/10/16 10:09:45;;;;;;;9.40;8.50;;;;;;;11.70;89.94;99185.25;4960761;28;103749;-61
2021/10/16 10:12:14;;;;;;;15.50;14.00;;;;;;;11.12;90.82;99179.50;4976084;28;103261;-61
2021/10/16 10:14:44;;;;;;;16.60;14.80;;;;;;;10.90;93.71;99183.59;4960283;28;103242;-62
2021/10/16 10:17:17;;;;;;;14.07;12.67;;;;;;;11.07;93.28;99183.34;4978419;28;103144;-62
2021/10/16 10:19:48;;;;;;;11.67;10.53;;;;;;;11.30;92.94;99186.22;4978946;28;102764;-60
2021/10/16 10:22:18;;;;;;;11.03;9.93;;;;;;;11.58;91.86;99180.75;4960017;28;104189;-60
2021/10/16 10:24:48;;;;;;;14.97;13.43;;;;;;;11.67;90.10;99182.78;4976831;28;103389;-60
2021/10/16 10:27:21;;;;;;;15.13;13.63;;;;;;;11.28;91.74;99180.22;4978464;28;102658;-61
2021/10/16 10:29:51;;;;;;;19.40;17.40;;;;;;;11.29;91.86;99181.88;4978476;28;103942;-60
2021/10/16 10:32:22;;;;;;;17.03;15.43;;;;;;;11.23;92.15;99177.84;4978682;28;103219;-61
2021/10/16 10:34:57;;;;;;;17.70;15.83;;;;;;;11.13;92.80;99168.84;4950067;28;102981;-60
2021/10/16 10:37:37;;;;;;;17.33;15.37;;;;;;;11.18;92.43;99176.47;4979025;28;102679;-60
2021/10/16 10:40:20;;;;;;;12.30;11.20;;;;;;;11.41;92.71;99179.25;4961274;28;102754;-61
2021/10/16 10:42:54;;;;;;;11.17;10.17;;;;;;;11.72;90.92;99167.44;4978396;28;104237;-61
2021/10/16 10:45:32;;;;;;;12.63;11.43;;;;;;;11.99;90.32;99176.09;4978114;28;103208;-60
2021/10/16 10:48:07;;;;;;;17.37;15.63;;;;;;;11.72;88.82;99164.81;4977928;28;102770;-60
2021/10/16 10:50:52;;;;;;;14.60;13.10;;;;;;;11.84;88.73;99163.09;4977373;28;104024;-61
2021/10/16 10:53:32;;;;;;;11.50;10.40;;;;;;;11.85;89.89;99168.28;4976158;28;104008;-61
2021/10/16 10:56:01;;;;;;;13.03;11.87;;;;;;;12.10;89.32;99165.59;4959999;28;103226;-60
2021/10/16 10:58:58;;;;;;;13.40;12.23;;;;;;;12.31;89.63;99170.31;4966181;28;103403;-60
2021/10/16 11:01:53;;;;;;;17.73;16.03;;;;;;;11.87;87.52;99170.84;4979007;28;103091;-61
2021/10/16 11:04:51;;;;;;;15.47;13.73;;;;;;;12.20;88.42;99166.66;4977540;28;103316;-61
2021/10/16 11:07:40;;;;;;;;;;;;;;;12.12;87.02;99157.56;4959978;28;103245;-61
2021/10/16 11:10:11;;;;;;;;;;;;;;;11.57;88.15;99163.16;4959532;28;102832;-61
2021/10/16 11:12:40;;;;;;;;;;;;;;;11.99;88.41;99152.25;4980141;28;102956;-61
2021/10/16 11:15:09;;;;;;;;;;;;;;;12.32;85.78;99148.19;4977634;28;104156;-61
2021/10/16 11:17:39;;;;;;;;;;;;;;;12.66;84.71;99139.44;4978619;28;103180;-61
2021/10/16 11:20:10;;;;;;;;;;;;;;;12.81;84.72;99133.00;4976516;28;102963;-61
2021/10/16 11:22:45;;;;;;;;;;;;;;;12.98;84.49;99132.59;4967069;28;103358;-61
2021/10/16 11:25:18;;;;;;;;;;;;;;;13.25;83.68;99135.81;4975024;28;104006;-60
2021/10/16 11:28:02;;;;;;;;;;;;;;;13.89;81.12;99123.69;4978942;28;104015;-61
2021/10/16 11:30:31;;;;;;;;;;;;;;;14.04;81.01;99120.78;4979840;28;103193;-61
2021/10/16 11:33:03;;;;;;;;;;;;;;;14.59;77.78;99117.22;4977255;28;103947;-61
2021/10/16 11:35:32;;;;;;;;;;;;;;;14.63;79.86;99108.00;4978930;28;103236;-61
2021/10/16 11:38:00;;;;;;;;;;;;;;;14.03;77.47;99109.34;4978142;28;102976;-61
2021/10/16 11:40:29;;;;;;;;;;;;;;;14.37;76.84;99108.31;4959066;28;102759;-61
2021/10/16 11:42:57;;;;;;;;;;;;;;;14.34;77.33;99100.59;4978439;28;104010;-61